Time;durP1;ratioP1;P1;durP2;ratioP2;P2;SDS_P1;SDS_P2;PMS_P1;PMS_P2;Temp;Humidity;BMP_temperature;BMP_pressure;BME280_temperature;BME280_humidity;BME280_pressure;Samples;Min_cycle;Max_cycle;Signal;HPM_P1;HPM_P2
2021/11/21 00:00:12;;;;;;;45.17;23.37;;;2.60;99.90;;;;;;4997985;28;20219;-76
2021/11/21 00:02:38;;;;;;;48.13;23.87;;;2.70;99.90;;;;;;5014908;28;20182;-76
2021/11/21 00:05:05;;;;;;;43.77;23.13;;;2.70;99.90;;;;;;5000540;28;20197;-76
2021/11/21 00:07:30;;;;;;;42.73;23.37;;;2.80;99.90;;;;;;4995145;28;20194;-75
2021/11/21 00:09:56;;;;;;;44.40;22.47;;;2.80;99.90;;;;;;5002016;28;20181;-75
2021/11/21 00:12:22;;;;;;;46.73;23.33;;;2.70;99.90;;;;;;5014665;28;20191;-75
2021/11/21 00:14:47;;;;;;;48.47;25.23;;;2.70;99.90;;;;;;5014537;28;20207;-75
2021/11/21 00:17:13;;;;;;;52.57;24.80;;;2.70;99.90;;;;;;5013185;28;20202;-75
2021/11/21 00:19:41;;;;;;;45.30;24.03;;;2.60;99.90;;;;;;5014592;28;20278;-75
2021/11/21 00:22:13;;;;;;;43.93;22.47;;;2.70;99.90;;;;;;5010024;28;20175;-76
2021/11/21 00:24:41;;;;;;;49.37;24.50;;;2.80;99.90;;;;;;4997171;28;20242;-76
2021/11/21 00:27:07;;;;;;;46.33;24.67;;;2.80;99.90;;;;;;4994835;28;20664;-75
2021/11/21 00:29:33;;;;;;;48.30;24.63;;;2.70;99.90;;;;;;4994769;28;20184;-76
2021/11/21 00:31:59;;;;;;;58.07;25.53;;;2.80;99.90;;;;;;4994731;28;20199;-75
2021/11/21 00:34:24;;;;;;;51.93;25.17;;;2.80;99.90;;;;;;4994531;28;20200;-76
2021/11/21 00:36:50;;;;;;;53.87;24.30;;;2.80;99.90;;;;;;4994595;28;20206;-76
2021/11/21 00:39:16;;;;;;;54.23;25.40;;;2.80;99.90;;;;;;4994594;28;20655;-75
2021/11/21 00:41:42;;;;;;;51.30;24.83;;;2.90;99.90;;;;;;4994673;28;20184;-75
2021/11/21 00:44:07;;;;;;;55.23;24.70;;;2.80;99.90;;;;;;4993143;28;20199;-76
2021/11/21 00:46:33;;;;;;;46.43;23.63;;;2.80;99.90;;;;;;4994637;28;20180;-76
2021/11/21 00:49:00;;;;;;;52.10;24.27;;;2.90;99.90;;;;;;4993174;28;20264;-75
2021/11/21 00:51:26;;;;;;;51.23;24.30;;;2.90;99.90;;;;;;4993024;28;20174;-76
2021/11/21 00:53:54;;;;;;;57.10;25.80;;;2.90;99.90;;;;;;4994292;28;20235;-75
2021/11/21 00:56:20;;;;;;;61.27;26.80;;;2.90;99.90;;;;;;4993097;28;20172;-75
2021/11/21 00:58:46;;;;;;;58.23;24.47;;;2.80;99.90;;;;;;4994174;28;20226;-76
2021/11/21 01:01:13;;;;;;;50.50;24.27;;;2.90;99.90;;;;;;4992987;28;20188;-75
2021/11/21 01:03:40;;;;;;;58.43;25.23;;;2.90;99.90;;;;;;4994141;28;20202;-76
2021/11/21 01:06:06;;;;;;;49.17;24.73;;;2.90;99.90;;;;;;4994109;28;20666;-75
2021/11/21 01:08:32;;;;;;;54.77;24.90;;;2.80;99.90;;;;;;4993987;28;20176;-75
2021/11/21 01:11:04;;;;;;;58.27;26.17;;;2.80;99.90;;;;;;5009259;28;20259;-75
2021/11/21 01:13:30;;;;;;;60.17;26.63;;;2.80;99.90;;;;;;5013765;28;20206;-76
2021/11/21 01:15:56;;;;;;;56.00;26.70;;;2.80;99.90;;;;;;5013457;28;20195;-75
2021/11/21 01:18:22;;;;;;;58.77;27.07;;;3.00;99.90;;;;;;5012168;28;20214;-75
2021/11/21 01:20:49;;;;;;;50.57;23.97;;;3.00;99.90;;;;;;5012988;28;20191;-75
2021/11/21 01:23:16;;;;;;;58.53;26.37;;;3.00;99.90;;;;;;5012155;28;20618;-76
2021/11/21 01:25:43;;;;;;;56.27;25.90;;;3.00;99.90;;;;;;5013527;28;20195;-75
2021/11/21 01:28:09;;;;;;;51.53;25.00;;;2.90;99.90;;;;;;5012172;28;20172;-75
2021/11/21 01:30:35;;;;;;;54.67;26.43;;;3.00;99.90;;;;;;5013403;28;20191;-75
2021/11/21 01:33:03;;;;;;;53.97;25.53;;;3.00;99.90;;;;;;5013348;28;20179;-75
2021/11/21 01:35:30;;;;;;;66.03;28.37;;;3.00;99.90;;;;;;5011299;28;20203;-75
2021/11/21 01:37:57;;;;;;;56.93;26.23;;;2.90;99.90;;;;;;5009617;28;20293;-75
2021/11/21 01:40:23;;;;;;;53.93;24.33;;;2.90;99.90;;;;;;5013284;28;20642;-73
2021/11/21 01:42:51;;;;;;;58.17;25.67;;;3.00;99.90;;;;;;5013412;28;20184;-75
2021/11/21 01:45:18;;;;;;;54.07;26.07;;;3.00;99.90;;;;;;5011941;28;20283;-76
2021/11/21 01:47:46;;;;;;;54.57;25.17;;;3.00;99.90;;;;;;5013223;28;20647;-76
2021/11/21 01:50:19;;;;;;;57.53;26.30;;;3.00;99.90;;;;;;5011994;28;20646;-76
2021/11/21 01:52:44;;;;;;;58.53;25.93;;;3.00;99.90;;;;;;5013111;28;20179;-76
2021/11/21 01:55:10;;;;;;;60.30;27.30;;;3.00;99.90;;;;;;5032116;23;20612;-81
2021/11/21 01:57:37;;;;;;;56.53;25.90;;;3.30;99.90;;;;;;5017981;28;20719;-80
2021/11/21 02:00:09;;;;;;;54.90;25.73;;;2.90;99.90;;;;;;5018806;28;20170;-81
2021/11/21 02:02:34;;;;;;;57.37;27.03;;;2.90;99.90;;;;;;5019706;28;20167;-81
2021/11/21 02:05:00;;;;;;;60.53;26.53;;;2.90;99.90;;;;;;5019365;28;20214;-81
2021/11/21 02:07:29;;;;;;;55.67;26.40;;;2.90;99.90;;;;;;5020020;28;20217;-80
2021/11/21 02:09:54;;;;;;;61.00;27.40;;;3.30;99.90;;;;;;5019187;28;20190;-81
2021/11/21 02:12:20;;;;;;;53.23;24.87;;;3.00;99.90;;;;;;5019557;28;20649;-81
2021/11/21 02:14:45;;;;;;;61.80;27.37;;;2.90;99.90;;;;;;5018560;28;20179;-80
2021/11/21 02:17:11;;;;;;;61.53;26.60;;;3.00;99.90;;;;;;5012007;28;20570;-80
2021/11/21 02:19:37;;;;;;;58.77;25.43;;;3.20;99.90;;;;;;5018118;28;20167;-81
2021/11/21 02:22:03;;;;;;;58.60;26.80;;;2.90;99.90;;;;;;5016717;28;20178;-80
2021/11/21 02:24:29;;;;;;;54.97;26.70;;;2.90;99.90;;;;;;5018580;28;20573;-81
2021/11/21 02:26:55;;;;;;;71.40;29.70;;;2.90;99.90;;;;;;5015885;28;20167;-81
2021/11/21 02:29:21;;;;;;;55.33;24.97;;;3.00;99.90;;;;;;5018457;28;20627;-81
2021/11/21 02:31:47;;;;;;;57.03;25.40;;;3.00;99.90;;;;;;5018210;28;20186;-82
2021/11/21 02:34:12;;;;;;;54.60;25.83;;;2.90;99.90;;;;;;5021809;28;20213;-81
2021/11/21 02:36:43;;;;;;;49.37;24.23;;;3.00;99.90;;;;;;5023204;28;20200;-81
2021/11/21 02:39:09;;;;;;;51.80;25.10;;;2.90;99.90;;;;;;5022736;28;20179;-82
2021/11/21 02:41:35;;;;;;;56.57;25.47;;;3.30;99.90;;;;;;5019967;28;20167;-81
2021/11/21 02:44:01;;;;;;;57.63;26.63;;;3.00;99.90;;;;;;5017798;28;20180;-81
2021/11/21 02:46:30;;;;;;;50.17;25.00;;;3.00;99.90;;;;;;5007458;28;20196;-81
2021/11/21 02:48:56;;;;;;;48.97;25.13;;;3.10;99.90;;;;;;4998114;28;20604;-81
2021/11/21 02:51:22;;;;;;;53.33;25.13;;;3.10;99.90;;;;;;4999999;28;20168;-82
2021/11/21 02:53:48;;;;;;;49.93;24.60;;;3.10;99.90;;;;;;5002781;28;20538;-80
2021/11/21 02:56:16;;;;;;;46.60;23.57;;;3.10;99.90;;;;;;5003800;28;20203;-81
2021/11/21 02:58:42;;;;;;;46.17;23.77;;;3.10;99.90;;;;;;5003552;28;20189;-80
2021/11/21 03:01:16;;;;;;;46.37;23.57;;;3.00;99.90;;;;;;5003354;28;20168;-81
2021/11/21 03:03:42;;;;;;;42.13;19.30;;;3.00;99.90;;;;;;5001287;28;20179;-81
2021/11/21 03:06:08;;;;;;;46.97;22.67;;;3.10;99.90;;;;;;5001135;28;20565;-81
2021/11/21 03:08:34;;;;;;;46.77;23.10;;;2.90;99.90;;;;;;5001664;28;20599;-80
2021/11/21 03:11:16;;;;;;;48.70;24.17;;;2.90;99.90;;;;;;5007557;28;20180;-81
2021/11/21 03:13:42;;;;;;;46.93;22.90;;;2.90;99.90;;;;;;5019679;28;20178;-81
2021/11/21 03:16:08;;;;;;;50.87;25.43;;;3.10;99.90;;;;;;5020263;28;20662;-81
2021/11/21 03:18:34;;;;;;;54.97;26.77;;;3.00;99.90;;;;;;5019574;28;20294;-82
2021/11/21 03:21:00;;;;;;;51.30;25.57;;;3.00;99.90;;;;;;5023213;28;20193;-82
2021/11/21 03:23:25;;;;;;;54.00;26.00;;;3.40;99.90;;;;;;5022306;28;20172;-82
2021/11/21 03:25:51;;;;;;;48.67;25.30;;;2.90;99.90;;;;;;5020395;28;20191;-81
2021/11/21 03:28:17;;;;;;;56.30;25.13;;;2.90;99.90;;;;;;5021272;28;20191;-81
2021/11/21 03:30:42;;;;;;;50.83;26.03;;;2.90;99.90;;;;;;5021958;28;20172;-81
2021/11/21 03:33:09;;;;;;;49.60;24.53;;;3.10;99.90;;;;;;5022009;28;20628;-81
2021/11/21 03:35:35;;;;;;;45.40;23.60;;;3.40;99.90;;;;;;5019975;28;20202;-81
2021/11/21 03:38:01;;;;;;;55.20;25.70;;;3.10;99.90;;;;;;5020551;28;20257;-81
2021/11/21 03:40:27;;;;;;;51.27;24.27;;;3.00;99.90;;;;;;5020580;28;20171;-81
2021/11/21 03:42:52;;;;;;;52.13;25.33;;;3.10;99.90;;;;;;5019856;28;20177;-81
2021/11/21 03:45:18;;;;;;;47.73;24.97;;;3.00;99.90;;;;;;5022170;28;20193;-81
2021/11/21 03:47:46;;;;;;;48.17;24.77;;;3.00;99.90;;;;;;5020456;28;20179;-81
2021/11/21 03:50:12;;;;;;;43.97;24.17;;;3.00;99.90;;;;;;5020088;28;20183;-81
2021/11/21 03:52:40;;;;;;;48.87;24.40;;;3.00;99.90;;;;;;5019007;28;20552;-81
2021/11/21 03:55:07;;;;;;;48.53;23.87;;;3.00;99.90;;;;;;5002057;28;20230;-81
2021/11/21 03:57:33;;;;;;;45.73;22.30;;;2.90;99.90;;;;;;5002014;28;20207;-81
2021/11/21 03:59:58;;;;;;;45.57;22.07;;;3.00;99.90;;;;;;5000219;28;20177;-81
2021/11/21 04:02:24;;;;;;;50.17;24.03;;;2.90;99.90;;;;;;5002547;28;20170;-81
2021/11/21 04:04:50;;;;;;;47.27;23.80;;;2.90;99.90;;;;;;4999210;28;20295;-81
2021/11/21 04:07:15;;;;;;;41.63;20.87;;;2.90;99.90;;;;;;5001752;28;20172;-81
2021/11/21 04:09:41;;;;;;;41.73;23.83;;;3.30;99.90;;;;;;5001241;28;20209;-81
2021/11/21 04:12:07;;;;;;;45.47;23.30;;;3.50;99.90;;;;;;5015318;28;20716;-81
2021/11/21 04:14:33;;;;;;;45.80;23.10;;;2.90;99.90;;;;;;5021526;28;20183;-81
2021/11/21 04:16:59;;;;;;;41.67;22.03;;;3.20;99.90;;;;;;5021349;28;20216;-81
2021/11/21 04:19:24;;;;;;;37.93;20.43;;;3.00;99.90;;;;;;5017678;28;20179;-80
2021/11/21 04:21:50;;;;;;;41.67;23.20;;;3.20;99.90;;;;;;5005637;28;20207;-81
2021/11/21 04:24:16;;;;;;;39.27;21.47;;;2.90;99.90;;;;;;5001540;28;20180;-82
2021/11/21 04:26:43;;;;;;;36.07;20.00;;;3.30;99.90;;;;;;5000439;28;20200;-81
2021/11/21 04:29:10;;;;;;;35.20;20.57;;;3.00;99.90;;;;;;5000745;28;20555;-81
2021/11/21 04:31:36;;;;;;;39.57;20.73;;;3.50;99.90;;;;;;5002472;28;20231;-81
2021/11/21 04:34:02;;;;;;;40.63;21.27;;;3.00;99.90;;;;;;5001183;28;20206;-81
2021/11/21 04:36:28;;;;;;;43.07;21.57;;;3.40;99.90;;;;;;5001872;28;20196;-81
2021/11/21 04:38:53;;;;;;;39.20;21.97;;;3.00;99.90;;;;;;5001474;28;20244;-82
2021/11/21 04:41:19;;;;;;;44.23;22.60;;;3.00;99.90;;;;;;5001112;28;20200;-81
2021/11/21 04:43:45;;;;;;;41.57;22.43;;;3.40;99.90;;;;;;5001259;28;20169;-81
2021/11/21 04:46:12;;;;;;;46.00;22.60;;;3.00;99.90;;;;;;5000858;28;20231;-81
2021/11/21 04:48:38;;;;;;;37.63;20.77;;;3.00;99.90;;;;;;4999434;28;20172;-81
2021/11/21 04:51:04;;;;;;;41.83;22.07;;;3.00;99.90;;;;;;5000564;28;20180;-82
2021/11/21 04:53:29;;;;;;;39.83;22.17;;;3.00;99.90;;;;;;4999363;28;20191;-81
2021/11/21 04:55:55;;;;;;;37.10;20.93;;;3.10;99.90;;;;;;4997976;28;20269;-81
2021/11/21 04:58:21;;;;;;;37.20;20.67;;;3.30;99.90;;;;;;4998917;28;20698;-81
2021/11/21 05:00:47;;;;;;;36.73;20.70;;;3.00;99.90;;;;;;5004162;28;20175;-82
2021/11/21 05:03:13;;;;;;;45.00;21.10;;;3.00;99.90;;;;;;5019949;28;20179;-81
2021/11/21 05:05:39;;;;;;;36.80;20.87;;;3.20;99.90;;;;;;5018945;28;20199;-82
2021/11/21 05:08:07;;;;;;;37.50;21.00;;;3.10;99.90;;;;;;4999420;28;20639;-80
2021/11/21 05:10:33;;;;;;;37.53;20.97;;;3.00;99.90;;;;;;5000734;28;20178;-81
2021/11/21 05:12:59;;;;;;;37.43;20.90;;;3.10;99.90;;;;;;5019035;28;20178;-81
2021/11/21 05:15:25;;;;;;;36.50;19.80;;;3.00;99.90;;;;;;5019222;28;20211;-81
2021/11/21 05:17:52;;;;;;;36.50;19.67;;;3.00;99.90;;;;;;5019058;28;20191;-81
2021/11/21 05:20:19;;;;;;;32.60;19.37;;;3.00;99.90;;;;;;5018210;28;20171;-81
2021/11/21 05:22:46;;;;;;;32.10;19.53;;;2.90;99.90;;;;;;5018844;28;20175;-81
2021/11/21 05:25:14;;;;;;;34.30;20.07;;;3.20;99.90;;;;;;5020304;28;20191;-81
2021/11/21 05:27:43;;;;;;;35.37;19.20;;;3.00;99.90;;;;;;5019598;28;20171;-81
2021/11/21 05:30:09;;;;;;;33.10;19.07;;;2.90;99.90;;;;;;5019993;28;20171;-81
2021/11/21 05:32:34;;;;;;;35.73;19.13;;;2.90;99.90;;;;;;5020015;28;20197;-81
2021/11/21 05:35:00;;;;;;;32.23;18.83;;;2.80;99.90;;;;;;5019379;28;20254;-81
2021/11/21 05:37:26;;;;;;;32.00;19.63;;;2.90;99.90;;;;;;5019885;28;20585;-81
2021/11/21 05:39:52;;;;;;;31.77;18.57;;;2.90;99.90;;;;;;5020251;28;20167;-81
2021/11/21 05:42:17;;;;;;;29.87;18.77;;;2.80;99.90;;;;;;5024559;28;20614;-82
2021/11/21 05:44:43;;;;;;;29.17;18.27;;;2.90;99.90;;;;;;5021867;28;20171;-81
2021/11/21 05:47:09;;;;;;;32.63;18.20;;;3.00;99.90;;;;;;5022260;28;20698;-81
2021/11/21 05:49:34;;;;;;;31.70;17.57;;;2.90;99.90;;;;;;5022101;28;20198;-82
2021/11/21 05:52:00;;;;;;;28.50;17.23;;;2.90;99.90;;;;;;5020008;28;20602;-81
2021/11/21 05:54:26;;;;;;;29.67;17.53;;;3.00;99.90;;;;;;5020457;28;20175;-82
2021/11/21 05:56:51;;;;;;;28.80;17.07;;;3.50;99.90;;;;;;5020649;28;20211;-81
2021/11/21 05:59:17;;;;;;;29.60;17.33;;;3.00;99.90;;;;;;5017036;28;20190;-82
2021/11/21 06:01:42;;;;;;;27.03;17.17;;;3.00;99.90;;;;;;5001526;28;20175;-81
2021/11/21 06:04:08;;;;;;;25.30;16.50;;;3.00;99.90;;;;;;5000305;28;20255;-81
2021/11/21 06:06:34;;;;;;;26.17;16.33;;;3.20;99.90;;;;;;5000823;28;20196;-81
2021/11/21 06:09:02;;;;;;;31.40;18.03;;;2.90;99.90;;;;;;5005090;28;20175;-82
2021/11/21 06:11:27;;;;;;;29.87;18.67;;;2.90;99.90;;;;;;5012414;28;20179;-82
2021/11/21 06:13:53;;;;;;;30.70;18.00;;;3.40;99.90;;;;;;5018698;28;20186;-81
2021/11/21 06:16:18;;;;;;;27.83;16.93;;;3.00;99.90;;;;;;5010242;28;20798;-81
2021/11/21 06:18:44;;;;;;;29.70;17.37;;;3.10;99.90;;;;;;5003930;28;20559;-81
2021/11/21 06:21:10;;;;;;;34.13;18.57;;;3.10;99.90;;;;;;5005303;28;20730;-81
2021/11/21 06:23:36;;;;;;;33.77;18.90;;;3.00;99.90;;;;;;5003985;28;20239;-81
2021/11/21 06:26:03;;;;;;;33.80;18.43;;;3.00;99.90;;;;;;5003855;28;20197;-81
2021/11/21 06:28:30;;;;;;;33.77;18.83;;;3.00;99.90;;;;;;5003351;28;20188;-81
2021/11/21 06:30:56;;;;;;;32.43;19.10;;;3.00;99.90;;;;;;5003468;28;20184;-80
2021/11/21 06:33:21;;;;;;;30.23;19.27;;;3.00;99.90;;;;;;5002273;28;20187;-80
2021/11/21 06:35:48;;;;;;;34.47;19.97;;;2.80;99.90;;;;;;5002162;28;20286;-81
2021/11/21 06:38:15;;;;;;;33.80;19.63;;;2.80;99.90;;;;;;5001944;28;20666;-81
2021/11/21 06:40:41;;;;;;;32.73;18.87;;;3.20;99.90;;;;;;5003922;28;20183;-81
2021/11/21 06:43:06;;;;;;;30.20;19.13;;;2.80;99.90;;;;;;5003599;28;20180;-81
2021/11/21 06:45:32;;;;;;;28.30;17.33;;;3.10;99.90;;;;;;5004045;28;20207;-81
2021/11/21 06:47:58;;;;;;;30.70;18.83;;;2.90;99.90;;;;;;5002660;28;20187;-81
2021/11/21 06:50:24;;;;;;;29.67;19.00;;;2.80;99.90;;;;;;5002728;28;20246;-80
2021/11/21 06:52:49;;;;;;;30.77;17.87;;;2.80;99.90;;;;;;5003725;28;20627;-81
2021/11/21 06:55:19;;;;;;;28.17;17.83;;;2.80;99.90;;;;;;5006084;28;20222;-81
2021/11/21 06:57:45;;;;;;;27.80;16.67;;;2.70;99.90;;;;;;5005987;28;20247;-82
2021/11/21 07:00:15;;;;;;;30.70;18.37;;;2.60;99.90;;;;;;5005961;28;20180;-81
2021/11/21 07:02:41;;;;;;;31.07;18.90;;;2.60;99.90;;;;;;4992733;28;20183;-81
2021/11/21 07:05:07;;;;;;;32.27;19.27;;;2.60;99.90;;;;;;5004605;28;20551;-81
2021/11/21 07:07:34;;;;;;;30.00;18.70;;;2.60;99.90;;;;;;5004774;28;20615;-81
2021/11/21 07:09:59;;;;;;;31.10;18.67;;;2.70;99.90;;;;;;5004442;28;20210;-81
2021/11/21 07:12:25;;;;;;;27.00;17.57;;;2.70;99.90;;;;;;5021312;28;20175;-81
2021/11/21 07:14:51;;;;;;;30.47;18.93;;;2.70;99.90;;;;;;5021610;28;20199;-81
2021/11/21 07:17:17;;;;;;;27.60;17.77;;;2.60;99.90;;;;;;5023789;28;20708;-80
2021/11/21 07:19:43;;;;;;;26.87;17.30;;;2.70;99.90;;;;;;5009279;28;20658;-81
2021/11/21 07:22:08;;;;;;;24.87;16.30;;;2.70;99.90;;;;;;5002882;28;20264;-81
2021/11/21 07:24:34;;;;;;;24.63;15.83;;;2.70;99.90;;;;;;5004307;28;20177;-81
2021/11/21 07:27:00;;;;;;;24.87;17.37;;;2.70;99.90;;;;;;5002673;28;20172;-81
2021/11/21 07:29:29;;;;;;;22.93;14.73;;;2.60;99.90;;;;;;5002981;28;20180;-81
2021/11/21 07:32:01;;;;;;;26.17;16.27;;;2.60;99.90;;;;;;5003260;28;20221;-81
2021/11/21 07:34:27;;;;;;;26.90;18.17;;;2.90;99.90;;;;;;5002914;28;20179;-81
2021/11/21 07:36:53;;;;;;;25.17;17.53;;;2.60;99.90;;;;;;5001515;28;20193;-82
2021/11/21 07:39:19;;;;;;;24.33;16.10;;;2.50;99.90;;;;;;5002764;28;20266;-81
2021/11/21 07:41:45;;;;;;;19.40;13.97;;;3.00;99.90;;;;;;5003159;28;20172;-81
2021/11/21 07:44:11;;;;;;;22.23;14.40;;;1.90;99.90;;;;;;5002945;28;20176;-81
2021/11/21 07:46:37;;;;;;;20.67;13.63;;;2.60;99.90;;;;;;5001546;28;20288;-81
2021/11/21 07:49:03;;;;;;;19.30;14.40;;;2.60;99.90;;;;;;5001326;28;20622;-81
2021/11/21 07:51:29;;;;;;;19.77;14.83;;;3.20;99.90;;;;;;5002064;28;20185;-81
2021/11/21 07:53:55;;;;;;;19.27;13.87;;;2.70;99.90;;;;;;5001529;28;20177;-81
2021/11/21 07:56:21;;;;;;;19.43;14.67;;;2.60;99.90;;;;;;5031950;23;20239;-81
2021/11/21 07:58:47;;;;;;;19.17;14.83;;;2.50;99.90;;;;;;5016757;28;20214;-82
2021/11/21 08:01:12;;;;;;;18.17;12.80;;;2.50;99.90;;;;;;5025107;28;20176;-82
2021/11/21 08:03:38;;;;;;;20.90;14.40;;;3.40;99.90;;;;;;5022530;28;20168;-81
2021/11/21 08:06:04;;;;;;;20.00;14.97;;;3.50;99.90;;;;;;5024205;28;20198;-80
2021/11/21 08:08:30;;;;;;;23.20;15.47;;;2.40;99.90;;;;;;5024295;28;20179;-81
2021/11/21 08:10:56;;;;;;;22.00;15.40;;;2.50;99.90;;;;;;5024411;28;20644;-83
2021/11/21 08:13:24;;;;;;;22.60;15.13;;;2.50;99.90;;;;;;5024261;28;20179;-82
2021/11/21 08:15:50;;;;;;;21.17;15.20;;;2.50;99.90;;;;;;5022147;28;20620;-81
2021/11/21 08:18:15;;;;;;;22.10;15.20;;;2.40;99.90;;;;;;5011435;28;20230;-80
2021/11/21 08:20:41;;;;;;;24.83;16.30;;;2.60;99.90;;;;;;5014496;28;20179;-80
2021/11/21 08:23:07;;;;;;;21.00;13.57;;;2.50;99.90;;;;;;5015235;28;20613;-80
2021/11/21 08:25:32;;;;;;;20.80;15.03;;;2.60;99.90;;;;;;5008786;28;20333;-80
2021/11/21 08:27:58;;;;;;;22.13;14.20;;;2.60;99.90;;;;;;5019344;28;20218;-80
2021/11/21 08:30:24;;;;;;;18.90;13.80;;;2.70;99.90;;;;;;5020771;28;20322;-78
2021/11/21 08:32:51;;;;;;;22.47;15.33;;;2.70;99.90;;;;;;5019346;28;20171;-80
2021/11/21 08:35:18;;;;;;;25.10;15.50;;;2.70;99.90;;;;;;5021009;28;20237;-80
2021/11/21 08:37:44;;;;;;;19.03;14.77;;;2.70;99.90;;;;;;5020282;28;20740;-80
2021/11/21 08:40:11;;;;;;;16.93;13.60;;;2.70;99.90;;;;;;5020270;28;20267;-80
2021/11/21 08:42:38;;;;;;;20.77;14.00;;;2.70;99.90;;;;;;5021076;28;20182;-80
2021/11/21 08:45:08;;;;;;;21.00;14.73;;;2.70;99.90;;;;;;5023531;28;20262;-81
2021/11/21 08:47:35;;;;;;;18.60;14.77;;;2.70;99.90;;;;;;5019766;28;20210;-80
2021/11/21 08:50:01;;;;;;;19.17;13.93;;;2.70;99.90;;;;;;5018241;28;20175;-80
2021/11/21 08:52:26;;;;;;;19.70;14.10;;;2.70;99.90;;;;;;5020217;28;20180;-82
2021/11/21 08:54:52;;;;;;;17.77;12.87;;;2.70;99.90;;;;;;5023358;28;20225;-81
2021/11/21 08:57:18;;;;;;;17.33;13.43;;;3.00;99.90;;;;;;5024755;28;20211;-80
2021/11/21 08:59:43;;;;;;;17.97;13.13;;;2.60;99.90;;;;;;5022837;28;20186;-81
2021/11/21 09:02:09;;;;;;;20.87;13.70;;;2.50;99.90;;;;;;5023864;28;20182;-82
2021/11/21 09:04:35;;;;;;;21.23;14.50;;;2.50;99.90;;;;;;5025427;28;20175;-83
2021/11/21 09:07:01;;;;;;;21.40;15.10;;;2.40;99.90;;;;;;5023974;28;20194;-82
2021/11/21 09:09:27;;;;;;;22.00;14.33;;;2.40;99.90;;;;;;5023364;28;20238;-82
2021/11/21 09:11:52;;;;;;;16.67;12.30;;;2.50;99.90;;;;;;5015983;28;20188;-80
2021/11/21 09:14:19;;;;;;;16.47;13.10;;;2.40;99.90;;;;;;5006330;28;20172;-82
2021/11/21 09:16:45;;;;;;;18.63;13.17;;;2.50;99.90;;;;;;5006838;28;20199;-81
2021/11/21 09:19:10;;;;;;;18.83;12.93;;;2.60;99.90;;;;;;5006846;28;20191;-81
2021/11/21 09:21:37;;;;;;;17.63;13.63;;;2.60;99.90;;;;;;5007147;28;20258;-81
2021/11/21 09:24:04;;;;;;;18.63;12.90;;;2.50;99.90;;;;;;5001952;28;20184;-81
2021/11/21 09:26:30;;;;;;;19.63;13.47;;;2.40;99.90;;;;;;5005900;28;20191;-81
2021/11/21 09:28:56;;;;;;;15.57;10.83;;;2.30;99.90;;;;;;5003168;28;20264;-82
2021/11/21 09:31:22;;;;;;;18.97;12.93;;;2.30;99.90;;;;;;5005943;28;20168;-82
2021/11/21 09:33:48;;;;;;;11.97;8.73;;;2.30;99.90;;;;;;5003835;28;20179;-81
2021/11/21 09:36:14;;;;;;;13.33;9.83;;;2.30;99.90;;;;;;5003790;28;20686;-81
2021/11/21 09:38:40;;;;;;;19.73;14.20;;;2.20;99.90;;;;;;5002543;28;20187;-81
2021/11/21 09:41:05;;;;;;;20.13;14.03;;;2.60;99.90;;;;;;5002584;28;20581;-82
2021/11/21 09:43:32;;;;;;;20.07;14.70;;;2.30;99.90;;;;;;5005872;28;20171;-82
2021/11/21 09:45:59;;;;;;;16.97;13.33;;;2.50;99.90;;;;;;5020299;28;20704;-82
2021/11/21 09:48:33;;;;;;;16.00;13.23;;;2.50;99.90;;;;;;5023368;28;20198;-82
2021/11/21 09:51:00;;;;;;;18.43;13.23;;;2.60;99.90;;;;;;5021960;28;20203;-82
2021/11/21 09:53:25;;;;;;;17.27;13.13;;;2.60;99.90;;;;;;5019599;28;20665;-79
2021/11/21 09:55:51;;;;;;;19.80;13.40;;;3.00;99.90;;;;;;5017776;28;20214;-82
2021/11/21 09:58:18;;;;;;;17.97;13.27;;;2.80;99.90;;;;;;5006363;28;20263;-81
2021/11/21 10:00:43;;;;;;;19.37;13.07;;;2.80;99.90;;;;;;4998469;28;20176;-80
2021/11/21 10:03:13;;;;;;;19.27;12.93;;;2.80;99.90;;;;;;5000579;28;20198;-80
2021/11/21 10:05:53;;;;;;;17.33;12.67;;;2.90;99.90;;;;;;4999644;28;20219;-80
2021/11/21 10:08:30;;;;;;;13.90;10.70;;;2.90;99.90;;;;;;4999756;28;20174;-81
2021/11/21 10:10:59;;;;;;;19.03;13.63;;;2.90;99.90;;;;;;5000517;28;20726;-80
2021/11/21 10:13:43;;;;;;;24.03;17.43;;;2.90;99.90;;;;;;4999661;28;20664;-81
2021/11/21 10:16:36;;;;;;;19.37;14.27;;;2.90;99.90;;;;;;5002170;28;20223;-82
2021/11/21 10:19:06;;;;;;;17.53;13.43;;;3.00;99.90;;;;;;5000124;28;20206;-82
2021/11/21 10:21:55;;;;;;;21.33;14.33;;;3.00;99.90;;;;;;4998226;28;20723;-82
2021/11/21 10:24:30;;;;;;;21.17;14.43;;;2.90;99.90;;;;;;4999228;28;20164;-79
2021/11/21 10:27:16;;;;;;;24.07;14.83;;;2.90;99.90;;;;;;5000820;28;20264;-82
2021/11/21 10:29:45;;;;;;;16.30;13.67;;;2.90;99.90;;;;;;5005960;28;20168;-82
2021/11/21 10:32:20;;;;;;;19.10;13.37;;;2.90;99.90;;;;;;5010678;28;20314;-81
2021/11/21 10:34:52;;;;;;;19.23;14.30;;;2.90;99.90;;;;;;5013060;28;20182;-81
2021/11/21 10:37:19;;;;;;;17.70;13.03;;;4.10;99.90;;;;;;5027088;28;20209;-82
2021/11/21 10:39:46;;;;;;;20.10;14.93;;;2.90;99.90;;;;;;5019346;28;20167;-81
2021/11/21 10:42:12;;;;;;;19.37;14.37;;;3.00;99.90;;;;;;5019276;28;20176;-80
2021/11/21 10:44:49;;;;;;;19.83;13.50;;;3.40;99.90;;;;;;5018336;28;20218;-81
2021/11/21 10:47:14;;;;;;;18.23;13.30;;;3.00;99.90;;;;;;5027435;28;20190;-81
2021/11/21 10:49:41;;;;;;;22.33;14.77;;;3.00;99.90;;;;;;5026997;28;20202;-80
2021/11/21 10:52:14;;;;;;;20.50;14.37;;;3.10;99.90;;;;;;5027822;28;20189;-82
2021/11/21 10:54:40;;;;;;;17.93;13.97;;;3.10;99.90;;;;;;5028955;28;20223;-82
2021/11/21 10:57:09;;;;;;;16.57;13.60;;;3.30;99.90;;;;;;5021961;28;20701;-81
2021/11/21 10:59:48;;;;;;;21.07;14.90;;;4.20;99.90;;;;;;5009492;28;20195;-82
2021/11/21 11:02:19;;;;;;;20.47;14.53;;;3.30;99.90;;;;;;5008937;28;20183;-82
2021/11/21 11:05:08;;;;;;;18.53;14.17;;;3.40;99.90;;;;;;5003158;28;20727;-82
2021/11/21 11:07:41;;;;;;;20.93;15.03;;;3.40;99.90;;;;;;5001537;28;20262;-81
2021/11/21 11:10:14;;;;;;;18.80;14.40;;;3.40;99.90;;;;;;5002903;28;20177;-82
2021/11/21 11:12:45;;;;;;;16.17;13.33;;;3.50;99.90;;;;;;5002299;28;20176;-80
2021/11/21 11:15:11;;;;;;;15.00;12.33;;;3.50;99.90;;;;;;5003272;28;20185;-80
2021/11/21 11:17:38;;;;;;;14.77;12.10;;;3.80;99.90;;;;;;5002417;28;20581;-80
2021/11/21 11:20:08;;;;;;;19.40;13.97;;;3.60;99.90;;;;;;5003944;28;20171;-80
2021/11/21 11:22:34;;;;;;;17.63;13.17;;;3.60;99.90;;;;;;5002171;28;20188;-81
2021/11/21 11:25:23;;;;;;;16.13;13.33;;;3.60;99.90;;;;;;5004542;28;20169;-82
2021/11/21 11:28:07;;;;;;;18.67;13.90;;;3.50;99.90;;;;;;5003716;28;20176;-81
2021/11/21 11:30:35;;;;;;;18.87;14.03;;;3.50;99.90;;;;;;5001966;28;20184;-81
2021/11/21 11:33:23;;;;;;;18.87;14.37;;;3.60;99.90;;;;;;5002490;28;20191;-81
2021/11/21 11:35:51;;;;;;;17.43;13.67;;;3.60;99.90;;;;;;5002311;28;20270;-81
2021/11/21 11:38:23;;;;;;;21.67;15.10;;;3.60;99.90;;;;;;5002523;28;20196;-81
2021/11/21 11:40:56;;;;;;;19.50;14.83;;;3.70;99.90;;;;;;5004003;28;20169;-80
2021/11/21 11:43:27;;;;;;;18.97;14.13;;;3.70;99.90;;;;;;5003485;28;20314;-80
2021/11/21 11:46:00;;;;;;;18.53;14.13;;;3.70;99.90;;;;;;5021756;28;20208;-80
2021/11/21 11:48:32;;;;;;;18.10;14.97;;;3.80;99.90;;;;;;5020825;28;20186;-81
2021/11/21 11:51:04;;;;;;;18.07;13.10;;;3.70;99.90;;;;;;5021020;28;20242;-81
2021/11/21 11:53:35;;;;;;;15.50;13.17;;;3.70;99.90;;;;;;5022661;28;20613;-81
2021/11/21 11:56:13;;;;;;;18.30;14.67;;;3.80;99.90;;;;;;5027573;28;20266;-82
2021/11/21 11:58:52;;;;;;;19.57;13.43;;;3.70;99.90;;;;;;5024167;28;20196;-82
2021/11/21 12:01:39;;;;;;;18.50;13.63;;;3.80;99.90;;;;;;5025272;28;20176;-81
2021/11/21 12:04:28;;;;;;;16.77;14.27;;;3.80;99.90;;;;;;5026030;28;20551;-81
2021/11/21 12:07:02;;;;;;;18.93;14.20;;;3.70;99.90;;;;;;5023193;28;20675;-82
2021/11/21 12:09:33;;;;;;;18.73;13.63;;;3.70;99.90;;;;;;5020544;28;20172;-81
2021/11/21 12:12:17;;;;;;;18.87;14.47;;;3.80;99.90;;;;;;5008652;28;20176;-82
2021/11/21 12:14:47;;;;;;;19.83;14.80;;;3.80;99.90;;;;;;5015835;28;20327;-82
2021/11/21 12:17:16;;;;;;;18.73;14.50;;;3.80;99.90;;;;;;5011949;28;20211;-82
2021/11/21 12:19:52;;;;;;;19.23;14.97;;;3.90;99.90;;;;;;5005994;28;20646;-81
2021/11/21 12:22:32;;;;;;;20.00;14.27;;;3.90;99.90;;;;;;5010365;28;20168;-82
2021/11/21 12:25:04;;;;;;;23.17;15.60;;;3.80;99.90;;;;;;5025351;28;20202;-81
2021/11/21 12:27:35;;;;;;;21.53;15.27;;;3.90;99.90;;;;;;5027824;28;20191;-81
2021/11/21 12:30:07;;;;;;;27.93;17.57;;;3.90;99.90;;;;;;5027303;28;20172;-82
2021/11/21 12:32:34;;;;;;;22.03;15.57;;;3.90;99.90;;;;;;5025587;28;20175;-82
2021/11/21 12:35:19;;;;;;;23.03;16.23;;;3.80;99.90;;;;;;5027233;28;20204;-83
2021/11/21 12:37:46;;;;;;;20.67;15.40;;;3.80;99.90;;;;;;5027389;28;20213;-83